sensor_id;sensor_type;location;lat;lon;timestamp;P1;durP1;ratioP1;P2;durP2;ratioP2
22871;SDS011;11603;44.910;8.630;2023-06-19T00:00:06;6.18;;;4.40;;
22871;SDS011;11603;44.910;8.630;2023-06-19T00:02:38;8.35;;;4.60;;
22871;SDS011;11603;44.910;8.630;2023-06-19T00:05:04;5.78;;;4.40;;
22871;SDS011;11603;44.910;8.630;2023-06-19T00:07:30;5.22;;;3.88;;
22871;SDS011;11603;44.910;8.630;2023-06-19T00:09:56;6.28;;;4.32;;
22871;SDS011;11603;44.910;8.630;2023-06-19T00:12:21;7.00;;;4.50;;
22871;SDS011;11603;44.910;8.630;2023-06-19T00:14:47;5.35;;;4.18;;
22871;SDS011;11603;44.910;8.630;2023-06-19T00:17:12;6.13;;;4.75;;
22871;SDS011;11603;44.910;8.630;2023-06-19T00:19:42;5.10;;;4.38;;
22871;SDS011;11603;44.910;8.630;2023-06-19T00:22:08;5.00;;;4.47;;
22871;SDS011;11603;44.910;8.630;2023-06-19T00:24:33;4.65;;;4.20;;
22871;SDS011;11603;44.910;8.630;2023-06-19T00:26:59;5.03;;;4.30;;
22871;SDS011;11603;44.910;8.630;2023-06-19T00:29:28;4.55;;;4.13;;
22871;SDS011;11603;44.910;8.630;2023-06-19T00:31:55;7.35;;;4.68;;
22871;SDS011;11603;44.910;8.630;2023-06-19T00:34:21;6.80;;;4.25;;
22871;SDS011;11603;44.910;8.630;2023-06-19T00:36:49;8.40;;;4.35;;
22871;SDS011;11603;44.910;8.630;2023-06-19T00:39:16;8.23;;;4.03;;
22871;SDS011;11603;44.910;8.630;2023-06-19T00:41:42;5.72;;;4.68;;
22871;SDS011;11603;44.910;8.630;2023-06-19T00:44:09;5.50;;;4.32;;
22871;SDS011;11603;44.910;8.630;2023-06-19T00:46:36;6.20;;;4.40;;
22871;SDS011;11603;44.910;8.630;2023-06-19T00:49:05;4.85;;;4.18;;
22871;SDS011;11603;44.910;8.630;2023-06-19T00:51:32;5.28;;;4.28;;
22871;SDS011;11603;44.910;8.630;2023-06-19T00:53:57;7.78;;;4.10;;
22871;SDS011;11603;44.910;8.630;2023-06-19T00:56:23;5.68;;;4.28;;
22871;SDS011;11603;44.910;8.630;2023-06-19T00:58:49;4.38;;;3.97;;
22871;SDS011;11603;44.910;8.630;2023-06-19T01:01:16;4.40;;;3.90;;
22871;SDS011;11603;44.910;8.630;2023-06-19T01:03:41;9.35;;;4.50;;
22871;SDS011;11603;44.910;8.630;2023-06-19T01:06:09;5.47;;;4.20;;
22871;SDS011;11603;44.910;8.630;2023-06-19T01:08:49;5.65;;;4.20;;
22871;SDS011;11603;44.910;8.630;2023-06-19T01:11:24;6.60;;;4.20;;
22871;SDS011;11603;44.910;8.630;2023-06-19T01:14:00;4.40;;;4.00;;
22871;SDS011;11603;44.910;8.630;2023-06-19T01:16:31;5.75;;;4.50;;
22871;SDS011;11603;44.910;8.630;2023-06-19T01:19:00;4.35;;;3.95;;
22871;SDS011;11603;44.910;8.630;2023-06-19T01:21:28;4.82;;;4.32;;
22871;SDS011;11603;44.910;8.630;2023-06-19T01:23:54;5.72;;;4.10;;
22871;SDS011;11603;44.910;8.630;2023-06-19T01:26:21;5.45;;;4.40;;
22871;SDS011;11603;44.910;8.630;2023-06-19T01:28:51;5.05;;;4.25;;
22871;SDS011;11603;44.910;8.630;2023-06-19T01:31:18;4.78;;;4.32;;
22871;SDS011;11603;44.910;8.630;2023-06-19T01:33:47;5.22;;;3.72;;
22871;SDS011;11603;44.910;8.630;2023-06-19T01:36:17;5.53;;;3.97;;
22871;SDS011;11603;44.910;8.630;2023-06-19T01:38:43;5.53;;;4.55;;
22871;SDS011;11603;44.910;8.630;2023-06-19T01:41:10;6.60;;;4.50;;
22871;SDS011;11603;44.910;8.630;2023-06-19T01:43:36;6.45;;;4.20;;
22871;SDS011;11603;44.910;8.630;2023-06-19T01:46:03;5.88;;;4.30;;
22871;SDS011;11603;44.910;8.630;2023-06-19T01:48:29;6.13;;;4.13;;
22871;SDS011;11603;44.910;8.630;2023-06-19T01:50:54;6.18;;;4.32;;
22871;SDS011;11603;44.910;8.630;2023-06-19T01:53:20;8.00;;;4.43;;
22871;SDS011;11603;44.910;8.630;2023-06-19T01:55:45;4.20;;;3.80;;
22871;SDS011;11603;44.910;8.630;2023-06-19T01:58:11;8.23;;;4.20;;
22871;SDS011;11603;44.910;8.630;2023-06-19T02:00:36;5.90;;;4.40;;
22871;SDS011;11603;44.910;8.630;2023-06-19T02:03:03;4.55;;;4.15;;
22871;SDS011;11603;44.910;8.630;2023-06-19T02:05:32;10.10;;;4.45;;
22871;SDS011;11603;44.910;8.630;2023-06-19T02:08:00;8.40;;;5.00;;
22871;SDS011;11603;44.910;8.630;2023-06-19T02:10:25;5.78;;;4.45;;
22871;SDS011;11603;44.910;8.630;2023-06-19T02:12:51;5.13;;;4.43;;
22871;SDS011;11603;44.910;8.630;2023-06-19T02:15:17;5.85;;;4.72;;
22871;SDS011;11603;44.910;8.630;2023-06-19T02:17:44;5.00;;;4.35;;
22871;SDS011;11603;44.910;8.630;2023-06-19T02:20:09;5.03;;;4.50;;
22871;SDS011;11603;44.910;8.630;2023-06-19T02:22:39;7.25;;;4.15;;
22871;SDS011;11603;44.910;8.630;2023-06-19T02:25:05;8.07;;;5.05;;
22871;SDS011;11603;44.910;8.630;2023-06-19T02:27:31;7.82;;;4.57;;
22871;SDS011;11603;44.910;8.630;2023-06-19T02:29:58;6.05;;;4.75;;
22871;SDS011;11603;44.910;8.630;2023-06-19T02:32:24;6.20;;;5.30;;
22871;SDS011;11603;44.910;8.630;2023-06-19T02:34:49;8.25;;;4.70;;
22871;SDS011;11603;44.910;8.630;2023-06-19T02:37:15;5.88;;;5.18;;
22871;SDS011;11603;44.910;8.630;2023-06-19T02:39:41;7.15;;;5.50;;
22871;SDS011;11603;44.910;8.630;2023-06-19T02:42:06;6.05;;;5.35;;
22871;SDS011;11603;44.910;8.630;2023-06-19T02:44:32;6.18;;;5.30;;
22871;SDS011;11603;44.910;8.630;2023-06-19T02:46:57;6.55;;;5.32;;
22871;SDS011;11603;44.910;8.630;2023-06-19T02:49:23;6.22;;;5.28;;
22871;SDS011;11603;44.910;8.630;2023-06-19T02:51:49;8.48;;;5.25;;
22871;SDS011;11603;44.910;8.630;2023-06-19T02:54:14;11.88;;;5.50;;
22871;SDS011;11603;44.910;8.630;2023-06-19T02:56:41;5.88;;;5.28;;
22871;SDS011;11603;44.910;8.630;2023-06-19T02:59:06;10.23;;;5.88;;
22871;SDS011;11603;44.910;8.630;2023-06-19T03:01:31;8.25;;;5.00;;
22871;SDS011;11603;44.910;8.630;2023-06-19T03:03:59;7.13;;;5.80;;
22871;SDS011;11603;44.910;8.630;2023-06-19T03:06:24;5.97;;;5.38;;
22871;SDS011;11603;44.910;8.630;2023-06-19T03:08:51;6.95;;;5.40;;
22871;SDS011;11603;44.910;8.630;2023-06-19T03:11:17;7.43;;;6.25;;
22871;SDS011;11603;44.910;8.630;2023-06-19T03:13:44;7.95;;;5.90;;
22871;SDS011;11603;44.910;8.630;2023-06-19T03:16:13;7.43;;;5.82;;
22871;SDS011;11603;44.910;8.630;2023-06-19T03:18:40;6.38;;;5.70;;
22871;SDS011;11603;44.910;8.630;2023-06-19T03:21:07;6.45;;;5.85;;
22871;SDS011;11603;44.910;8.630;2023-06-19T03:23:34;6.18;;;5.57;;
22871;SDS011;11603;44.910;8.630;2023-06-19T03:26:00;7.10;;;6.10;;
22871;SDS011;11603;44.910;8.630;2023-06-19T03:28:26;9.70;;;6.20;;
22871;SDS011;11603;44.910;8.630;2023-06-19T03:30:52;7.32;;;6.13;;
22871;SDS011;11603;44.910;8.630;2023-06-19T03:33:21;7.15;;;6.30;;
22871;SDS011;11603;44.910;8.630;2023-06-19T03:35:47;7.78;;;7.00;;
22871;SDS011;11603;44.910;8.630;2023-06-19T03:38:23;8.15;;;7.35;;
22871;SDS011;11603;44.910;8.630;2023-06-19T03:40:50;8.25;;;7.15;;
22871;SDS011;11603;44.910;8.630;2023-06-19T03:43:16;12.23;;;7.10;;
22871;SDS011;11603;44.910;8.630;2023-06-19T03:45:42;9.73;;;7.50;;
22871;SDS011;11603;44.910;8.630;2023-06-19T03:48:08;9.32;;;7.28;;
22871;SDS011;11603;44.910;8.630;2023-06-19T03:50:34;8.50;;;7.60;;
22871;SDS011;11603;44.910;8.630;2023-06-19T03:53:00;8.88;;;6.68;;
22871;SDS011;11603;44.910;8.630;2023-06-19T03:55:25;7.53;;;6.82;;
22871;SDS011;11603;44.910;8.630;2023-06-19T03:57:51;8.05;;;7.30;;
22871;SDS011;11603;44.910;8.630;2023-06-19T04:00:17;9.73;;;7.30;;
22871;SDS011;11603;44.910;8.630;2023-06-19T04:02:43;8.05;;;7.25;;
22871;SDS011;11603;44.910;8.630;2023-06-19T04:05:11;12.75;;;7.75;;
22871;SDS011;11603;44.910;8.630;2023-06-19T04:07:37;7.20;;;6.40;;
22871;SDS011;11603;44.910;8.630;2023-06-19T04:10:04;9.70;;;7.63;;
22871;SDS011;11603;44.910;8.630;2023-06-19T04:12:31;10.30;;;7.85;;
22871;SDS011;11603;44.910;8.630;2023-06-19T04:14:56;9.02;;;7.45;;
22871;SDS011;11603;44.910;8.630;2023-06-19T04:17:22;9.93;;;8.07;;
22871;SDS011;11603;44.910;8.630;2023-06-19T04:19:48;8.77;;;7.00;;
22871;SDS011;11603;44.910;8.630;2023-06-19T04:22:13;9.00;;;7.22;;
22871;SDS011;11603;44.910;8.630;2023-06-19T04:24:39;7.03;;;6.32;;
22871;SDS011;11603;44.910;8.630;2023-06-19T04:27:05;6.90;;;6.20;;
22871;SDS011;11603;44.910;8.630;2023-06-19T04:29:33;7.45;;;6.40;;
22871;SDS011;11603;44.910;8.630;2023-06-19T04:31:59;7.18;;;6.03;;
22871;SDS011;11603;44.910;8.630;2023-06-19T04:34:24;8.40;;;6.60;;
22871;SDS011;11603;44.910;8.630;2023-06-19T04:36:50;7.88;;;6.50;;
22871;SDS011;11603;44.910;8.630;2023-06-19T04:39:16;7.32;;;6.50;;
22871;SDS011;11603;44.910;8.630;2023-06-19T04:41:44;8.90;;;6.88;;
22871;SDS011;11603;44.910;8.630;2023-06-19T04:44:10;7.82;;;7.03;;
22871;SDS011;11603;44.910;8.630;2023-06-19T04:46:40;8.05;;;6.97;;
22871;SDS011;11603;44.910;8.630;2023-06-19T04:49:07;8.27;;;7.38;;
22871;SDS011;11603;44.910;8.630;2023-06-19T04:51:34;8.20;;;7.40;;
22871;SDS011;11603;44.910;8.630;2023-06-19T04:53:59;10.23;;;7.80;;
22871;SDS011;11603;44.910;8.630;2023-06-19T04:56:25;8.88;;;7.88;;
22871;SDS011;11603;44.910;8.630;2023-06-19T04:58:51;7.90;;;7.10;;
22871;SDS011;11603;44.910;8.630;2023-06-19T05:01:17;8.35;;;7.28;;
22871;SDS011;11603;44.910;8.630;2023-06-19T05:03:43;8.45;;;7.50;;
22871;SDS011;11603;44.910;8.630;2023-06-19T05:06:10;8.20;;;7.38;;
22871;SDS011;11603;44.910;8.630;2023-06-19T05:08:36;9.20;;;7.53;;
22871;SDS011;11603;44.910;8.630;2023-06-19T05:11:02;9.80;;;7.68;;
22871;SDS011;11603;44.910;8.630;2023-06-19T05:13:27;9.38;;;7.88;;
22871;SDS011;11603;44.910;8.630;2023-06-19T05:15:53;10.23;;;7.50;;
22871;SDS011;11603;44.910;8.630;2023-06-19T05:18:18;8.20;;;7.30;;
22871;SDS011;11603;44.910;8.630;2023-06-19T05:20:44;10.20;;;7.22;;
22871;SDS011;11603;44.910;8.630;2023-06-19T05:23:10;8.45;;;7.07;;
22871;SDS011;11603;44.910;8.630;2023-06-19T05:25:35;10.10;;;7.28;;
22871;SDS011;11603;44.910;8.630;2023-06-19T05:28:01;7.88;;;7.07;;
22871;SDS011;11603;44.910;8.630;2023-06-19T05:30:27;7.65;;;6.85;;
22871;SDS011;11603;44.910;8.630;2023-06-19T05:32:52;10.50;;;7.53;;
22871;SDS011;11603;44.910;8.630;2023-06-19T05:35:18;8.02;;;7.22;;
22871;SDS011;11603;44.910;8.630;2023-06-19T05:37:43;10.77;;;6.90;;
22871;SDS011;11603;44.910;8.630;2023-06-19T05:40:09;9.00;;;6.90;;
22871;SDS011;11603;44.910;8.630;2023-06-19T05:42:39;8.50;;;7.60;;
22871;SDS011;11603;44.910;8.630;2023-06-19T05:45:05;9.90;;;7.15;;
22871;SDS011;11603;44.910;8.630;2023-06-19T05:47:32;9.02;;;7.55;;
22871;SDS011;11603;44.910;8.630;2023-06-19T05:49:57;8.07;;;6.68;;
22871;SDS011;11603;44.910;8.630;2023-06-19T05:52:23;8.07;;;7.28;;
22871;SDS011;11603;44.910;8.630;2023-06-19T05:54:49;10.05;;;7.15;;
22871;SDS011;11603;44.910;8.630;2023-06-19T05:57:15;10.60;;;7.18;;
22871;SDS011;11603;44.910;8.630;2023-06-19T05:59:41;10.93;;;6.35;;
22871;SDS011;11603;44.910;8.630;2023-06-19T06:02:07;8.30;;;6.47;;
22871;SDS011;11603;44.910;8.630;2023-06-19T06:04:33;8.70;;;6.43;;
22871;SDS011;11603;44.910;8.630;2023-06-19T06:06:59;7.30;;;6.43;;
22871;SDS011;11603;44.910;8.630;2023-06-19T06:09:25;7.40;;;6.70;;
22871;SDS011;11603;44.910;8.630;2023-06-19T06:11:52;8.98;;;6.95;;
22871;SDS011;11603;44.910;8.630;2023-06-19T06:14:17;7.30;;;6.60;;
22871;SDS011;11603;44.910;8.630;2023-06-19T06:16:44;9.85;;;6.90;;
22871;SDS011;11603;44.910;8.630;2023-06-19T06:19:09;11.68;;;7.47;;
22871;SDS011;11603;44.910;8.630;2023-06-19T06:21:35;8.07;;;7.10;;
22871;SDS011;11603;44.910;8.630;2023-06-19T06:24:01;10.05;;;7.68;;
22871;SDS011;11603;44.910;8.630;2023-06-19T06:26:27;10.70;;;7.38;;
22871;SDS011;11603;44.910;8.630;2023-06-19T06:28:53;8.50;;;7.60;;
22871;SDS011;11603;44.910;8.630;2023-06-19T06:31:19;8.95;;;7.55;;
22871;SDS011;11603;44.910;8.630;2023-06-19T06:33:44;8.48;;;7.68;;
22871;SDS011;11603;44.910;8.630;2023-06-19T06:36:10;9.00;;;7.40;;
22871;SDS011;11603;44.910;8.630;2023-06-19T06:38:35;10.07;;;7.28;;
22871;SDS011;11603;44.910;8.630;2023-06-19T06:41:01;9.57;;;7.90;;
22871;SDS011;11603;44.910;8.630;2023-06-19T06:43:27;9.75;;;7.82;;
22871;SDS011;11603;44.910;8.630;2023-06-19T06:45:53;8.25;;;7.32;;
22871;SDS011;11603;44.910;8.630;2023-06-19T06:48:18;9.10;;;7.88;;
22871;SDS011;11603;44.910;8.630;2023-06-19T06:50:44;10.05;;;8.13;;
22871;SDS011;11603;44.910;8.630;2023-06-19T06:53:09;10.73;;;7.80;;
22871;SDS011;11603;44.910;8.630;2023-06-19T06:55:35;9.48;;;8.48;;
22871;SDS011;11603;44.910;8.630;2023-06-19T06:58:00;10.27;;;8.13;;
22871;SDS011;11603;44.910;8.630;2023-06-19T07:00:26;9.60;;;7.80;;
22871;SDS011;11603;44.910;8.630;2023-06-19T07:02:51;9.50;;;8.50;;
22871;SDS011;11603;44.910;8.630;2023-06-19T07:05:18;10.60;;;8.35;;
22871;SDS011;11603;44.910;8.630;2023-06-19T07:07:43;9.93;;;8.23;;
22871;SDS011;11603;44.910;8.630;2023-06-19T07:10:09;10.43;;;8.27;;
22871;SDS011;11603;44.910;8.630;2023-06-19T07:12:35;11.20;;;7.75;;
22871;SDS011;11603;44.910;8.630;2023-06-19T07:15:01;12.32;;;8.05;;
22871;SDS011;11603;44.910;8.630;2023-06-19T07:17:26;9.00;;;7.63;;
22871;SDS011;11603;44.910;8.630;2023-06-19T07:19:52;10.45;;;8.23;;
22871;SDS011;11603;44.910;8.630;2023-06-19T07:22:17;11.38;;;7.78;;
22871;SDS011;11603;44.910;8.630;2023-06-19T07:24:43;11.00;;;7.68;;
22871;SDS011;11603;44.910;8.630;2023-06-19T07:27:08;11.43;;;7.43;;
22871;SDS011;11603;44.910;8.630;2023-06-19T07:29:34;11.05;;;7.53;;
22871;SDS011;11603;44.910;8.630;2023-06-19T07:31:59;9.15;;;6.80;;
22871;SDS011;11603;44.910;8.630;2023-06-19T07:34:27;7.70;;;6.80;;
22871;SDS011;11603;44.910;8.630;2023-06-19T07:36:53;7.43;;;6.65;;
22871;SDS011;11603;44.910;8.630;2023-06-19T07:39:18;7.72;;;6.38;;
22871;SDS011;11603;44.910;8.630;2023-06-19T07:41:44;9.13;;;6.38;;
22871;SDS011;11603;44.910;8.630;2023-06-19T07:44:10;9.02;;;6.63;;
22871;SDS011;11603;44.910;8.630;2023-06-19T07:46:36;12.15;;;6.72;;
22871;SDS011;11603;44.910;8.630;2023-06-19T07:49:02;8.48;;;6.57;;
22871;SDS011;11603;44.910;8.630;2023-06-19T07:51:27;7.00;;;6.30;;
22871;SDS011;11603;44.910;8.630;2023-06-19T07:53:53;8.50;;;6.50;;
22871;SDS011;11603;44.910;8.630;2023-06-19T07:56:18;8.63;;;6.50;;
22871;SDS011;11603;44.910;8.630;2023-06-19T07:58:44;8.48;;;6.95;;
22871;SDS011;11603;44.910;8.630;2023-06-19T08:01:09;10.63;;;6.90;;
22871;SDS011;11603;44.910;8.630;2023-06-19T08:03:35;9.27;;;6.55;;
22871;SDS011;11603;44.910;8.630;2023-06-19T08:06:00;16.40;;;7.85;;
22871;SDS011;11603;44.910;8.630;2023-06-19T08:08:26;9.00;;;7.20;;
22871;SDS011;11603;44.910;8.630;2023-06-19T08:10:51;8.90;;;6.75;;
22871;SDS011;11603;44.910;8.630;2023-06-19T08:13:17;17.33;;;7.40;;
22871;SDS011;11603;44.910;8.630;2023-06-19T08:15:42;9.77;;;6.80;;
22871;SDS011;11603;44.910;8.630;2023-06-19T08:18:09;9.32;;;7.15;;
22871;SDS011;11603;44.910;8.630;2023-06-19T08:20:35;10.30;;;7.05;;
22871;SDS011;11603;44.910;8.630;2023-06-19T08:23:00;10.35;;;6.93;;
22871;SDS011;11603;44.910;8.630;2023-06-19T08:25:25;7.18;;;6.18;;
22871;SDS011;11603;44.910;8.630;2023-06-19T08:27:51;13.15;;;6.70;;
22871;SDS011;11603;44.910;8.630;2023-06-19T08:30:16;10.68;;;6.40;;
22871;SDS011;11603;44.910;8.630;2023-06-19T08:32:43;7.18;;;6.07;;
22871;SDS011;11603;44.910;8.630;2023-06-19T08:35:08;9.38;;;5.97;;
22871;SDS011;11603;44.910;8.630;2023-06-19T08:37:34;8.15;;;6.80;;
22871;SDS011;11603;44.910;8.630;2023-06-19T08:39:59;8.68;;;6.00;;
22871;SDS011;11603;44.910;8.630;2023-06-19T08:42:25;7.72;;;5.88;;
22871;SDS011;11603;44.910;8.630;2023-06-19T08:44:50;9.88;;;6.18;;
22871;SDS011;11603;44.910;8.630;2023-06-19T08:47:28;6.75;;;6.13;;
22871;SDS011;11603;44.910;8.630;2023-06-19T08:49:55;6.53;;;5.90;;
22871;SDS011;11603;44.910;8.630;2023-06-19T08:52:21;10.02;;;6.30;;
22871;SDS011;11603;44.910;8.630;2023-06-19T08:54:46;8.95;;;6.72;;
22871;SDS011;11603;44.910;8.630;2023-06-19T08:57:12;7.20;;;6.20;;
22871;SDS011;11603;44.910;8.630;2023-06-19T08:59:37;8.25;;;6.35;;
22871;SDS011;11603;44.910;8.630;2023-06-19T09:02:03;6.97;;;6.28;;
22871;SDS011;11603;44.910;8.630;2023-06-19T09:04:30;8.15;;;5.75;;
22871;SDS011;11603;44.910;8.630;2023-06-19T09:07:00;6.63;;;5.60;;
22871;SDS011;11603;44.910;8.630;2023-06-19T09:09:31;8.18;;;6.00;;
22871;SDS011;11603;44.910;8.630;2023-06-19T09:14:37;6.72;;;5.43;;
22871;SDS011;11603;44.910;8.630;2023-06-19T09:17:04;7.35;;;5.90;;
22871;SDS011;11603;44.910;8.630;2023-06-19T09:19:31;8.05;;;5.75;;
22871;SDS011;11603;44.910;8.630;2023-06-19T09:22:03;7.32;;;5.40;;
22871;SDS011;11603;44.910;8.630;2023-06-19T09:24:40;7.45;;;5.75;;
22871;SDS011;11603;44.910;8.630;2023-06-19T09:29:39;9.15;;;5.22;;
22871;SDS011;11603;44.910;8.630;2023-06-19T09:32:18;8.88;;;6.47;;
22871;SDS011;11603;44.910;8.630;2023-06-19T09:34:53;7.07;;;5.95;;
22871;SDS011;11603;44.910;8.630;2023-06-19T09:37:30;7.55;;;6.28;;
22871;SDS011;11603;44.910;8.630;2023-06-19T09:40:00;5.97;;;5.47;;
22871;SDS011;11603;44.910;8.630;2023-06-19T09:42:41;6.55;;;5.50;;
22871;SDS011;11603;44.910;8.630;2023-06-19T09:45:20;9.57;;;5.20;;
22871;SDS011;11603;44.910;8.630;2023-06-19T09:47:48;8.25;;;5.95;;
22871;SDS011;11603;44.910;8.630;2023-06-19T09:50:20;7.70;;;5.40;;
22871;SDS011;11603;44.910;8.630;2023-06-19T09:52:53;9.27;;;5.78;;
22871;SDS011;11603;44.910;8.630;2023-06-19T09:55:20;6.55;;;5.82;;
22871;SDS011;11603;44.910;8.630;2023-06-19T09:57:49;8.70;;;6.00;;
22871;SDS011;11603;44.910;8.630;2023-06-19T10:00:15;7.35;;;6.13;;
22871;SDS011;11603;44.910;8.630;2023-06-19T10:02:47;10.45;;;6.78;;
22871;SDS011;11603;44.910;8.630;2023-06-19T10:05:14;6.57;;;5.85;;
22871;SDS011;11603;44.910;8.630;2023-06-19T10:07:43;6.18;;;5.43;;
22871;SDS011;11603;44.910;8.630;2023-06-19T10:10:11;8.38;;;5.70;;
22871;SDS011;11603;44.910;8.630;2023-06-19T10:12:47;11.75;;;6.07;;
22871;SDS011;11603;44.910;8.630;2023-06-19T10:17:47;7.22;;;6.03;;
22871;SDS011;11603;44.910;8.630;2023-06-19T10:25:29;6.85;;;5.82;;
22871;SDS011;11603;44.910;8.630;2023-06-19T10:27:57;10.02;;;6.07;;
22871;SDS011;11603;44.910;8.630;2023-06-19T10:30:23;13.10;;;5.70;;
22871;SDS011;11603;44.910;8.630;2023-06-19T10:32:49;7.00;;;6.30;;
22871;SDS011;11603;44.910;8.630;2023-06-19T10:35:15;6.78;;;6.05;;
22871;SDS011;11603;44.910;8.630;2023-06-19T10:37:42;8.80;;;6.50;;
22871;SDS011;11603;44.910;8.630;2023-06-19T10:40:10;9.85;;;6.00;;
22871;SDS011;11603;44.910;8.630;2023-06-19T10:42:37;6.47;;;5.65;;
22871;SDS011;11603;44.910;8.630;2023-06-19T10:45:04;8.13;;;5.78;;
22871;SDS011;11603;44.910;8.630;2023-06-19T10:47:35;6.50;;;5.70;;
22871;SDS011;11603;44.910;8.630;2023-06-19T10:50:01;6.55;;;5.95;;
22871;SDS011;11603;44.910;8.630;2023-06-19T10:52:30;11.45;;;6.03;;
22871;SDS011;11603;44.910;8.630;2023-06-19T10:54:56;7.00;;;6.30;;
22871;SDS011;11603;44.910;8.630;2023-06-19T10:57:26;9.10;;;6.35;;
22871;SDS011;11603;44.910;8.630;2023-06-19T10:59:52;7.25;;;6.03;;
22871;SDS011;11603;44.910;8.630;2023-06-19T11:02:18;6.03;;;5.53;;
22871;SDS011;11603;44.910;8.630;2023-06-19T11:04:44;5.93;;;5.30;;
22871;SDS011;11603;44.910;8.630;2023-06-19T11:07:09;6.80;;;5.65;;
22871;SDS011;11603;44.910;8.630;2023-06-19T11:09:35;9.93;;;6.40;;
22871;SDS011;11603;44.910;8.630;2023-06-19T11:12:01;7.57;;;5.53;;
22871;SDS011;11603;44.910;8.630;2023-06-19T11:14:29;9.77;;;5.68;;
22871;SDS011;11603;44.910;8.630;2023-06-19T11:16:55;6.93;;;5.80;;
22871;SDS011;11603;44.910;8.630;2023-06-19T11:19:21;6.82;;;5.15;;
22871;SDS011;11603;44.910;8.630;2023-06-19T11:21:49;7.70;;;5.50;;
22871;SDS011;11603;44.910;8.630;2023-06-19T11:24:15;7.80;;;5.72;;
22871;SDS011;11603;44.910;8.630;2023-06-19T11:26:41;6.57;;;5.20;;
22871;SDS011;11603;44.910;8.630;2023-06-19T11:29:14;6.93;;;5.30;;
22871;SDS011;11603;44.910;8.630;2023-06-19T11:31:44;7.47;;;5.55;;
22871;SDS011;11603;44.910;8.630;2023-06-19T11:34:11;5.43;;;4.93;;
22871;SDS011;11603;44.910;8.630;2023-06-19T11:36:37;6.68;;;5.32;;
22871;SDS011;11603;44.910;8.630;2023-06-19T11:39:03;8.93;;;4.88;;
22871;SDS011;11603;44.910;8.630;2023-06-19T11:41:31;6.63;;;5.53;;
22871;SDS011;11603;44.910;8.630;2023-06-19T11:44:04;6.15;;;4.97;;
22871;SDS011;11603;44.910;8.630;2023-06-19T11:46:31;6.13;;;5.10;;
22871;SDS011;11603;44.910;8.630;2023-06-19T11:49:15;7.18;;;5.45;;
22871;SDS011;11603;44.910;8.630;2023-06-19T11:51:43;6.63;;;5.68;;
22871;SDS011;11603;44.910;8.630;2023-06-19T11:54:09;6.10;;;5.30;;
22871;SDS011;11603;44.910;8.630;2023-06-19T11:56:36;6.75;;;5.50;;
22871;SDS011;11603;44.910;8.630;2023-06-19T11:59:05;5.65;;;4.70;;
22871;SDS011;11603;44.910;8.630;2023-06-19T12:01:34;8.95;;;5.47;;
22871;SDS011;11603;44.910;8.630;2023-06-19T12:04:01;7.82;;;4.55;;
22871;SDS011;11603;44.910;8.630;2023-06-19T12:06:27;7.63;;;5.32;;
22871;SDS011;11603;44.910;8.630;2023-06-19T12:08:53;6.10;;;5.13;;
22871;SDS011;11603;44.910;8.630;2023-06-19T12:11:18;6.35;;;5.13;;
22871;SDS011;11603;44.910;8.630;2023-06-19T12:13:44;6.15;;;5.25;;
22871;SDS011;11603;44.910;8.630;2023-06-19T12:16:10;6.75;;;4.78;;
22871;SDS011;11603;44.910;8.630;2023-06-19T12:18:36;8.18;;;4.70;;
22871;SDS011;11603;44.910;8.630;2023-06-19T12:21:01;7.03;;;4.97;;
22871;SDS011;11603;44.910;8.630;2023-06-19T12:23:27;6.30;;;4.90;;
22871;SDS011;11603;44.910;8.630;2023-06-19T12:25:53;9.95;;;5.65;;
22871;SDS011;11603;44.910;8.630;2023-06-19T12:28:18;5.93;;;5.22;;
22871;SDS011;11603;44.910;8.630;2023-06-19T12:30:44;6.30;;;4.90;;
22871;SDS011;11603;44.910;8.630;2023-06-19T12:33:10;7.18;;;4.78;;
22871;SDS011;11603;44.910;8.630;2023-06-19T12:35:40;7.13;;;5.22;;
22871;SDS011;11603;44.910;8.630;2023-06-19T12:38:06;6.72;;;4.40;;
22871;SDS011;11603;44.910;8.630;2023-06-19T12:40:32;6.43;;;5.10;;
22871;SDS011;11603;44.910;8.630;2023-06-19T12:42:58;5.57;;;4.97;;
22871;SDS011;11603;44.910;8.630;2023-06-19T12:45:24;7.25;;;5.15;;
22871;SDS011;11603;44.910;8.630;2023-06-19T12:47:49;8.55;;;4.95;;
22871;SDS011;11603;44.910;8.630;2023-06-19T12:50:15;10.43;;;4.93;;
22871;SDS011;11603;44.910;8.630;2023-06-19T12:52:40;5.40;;;4.90;;
22871;SDS011;11603;44.910;8.630;2023-06-19T12:55:06;5.60;;;5.10;;
22871;SDS011;11603;44.910;8.630;2023-06-19T12:57:32;6.47;;;4.90;;
22871;SDS011;11603;44.910;8.630;2023-06-19T12:59:57;5.65;;;5.15;;
22871;SDS011;11603;44.910;8.630;2023-06-19T13:02:23;6.47;;;4.65;;
22871;SDS011;11603;44.910;8.630;2023-06-19T13:04:48;5.43;;;4.80;;
22871;SDS011;11603;44.910;8.630;2023-06-19T13:07:14;5.28;;;4.78;;
22871;SDS011;11603;44.910;8.630;2023-06-19T13:09:40;5.47;;;4.90;;
22871;SDS011;11603;44.910;8.630;2023-06-19T13:12:06;7.10;;;4.47;;
22871;SDS011;11603;44.910;8.630;2023-06-19T13:14:32;6.15;;;4.75;;
22871;SDS011;11603;44.910;8.630;2023-06-19T13:16:57;5.75;;;4.75;;
22871;SDS011;11603;44.910;8.630;2023-06-19T13:19:23;7.07;;;4.70;;
22871;SDS011;11603;44.910;8.630;2023-06-19T13:21:50;5.60;;;4.57;;
22871;SDS011;11603;44.910;8.630;2023-06-19T13:24:16;5.18;;;4.68;;
22871;SDS011;11603;44.910;8.630;2023-06-19T13:26:42;6.38;;;4.30;;
22871;SDS011;11603;44.910;8.630;2023-06-19T13:29:09;5.13;;;4.60;;
22871;SDS011;11603;44.910;8.630;2023-06-19T13:31:36;12.18;;;4.28;;
22871;SDS011;11603;44.910;8.630;2023-06-19T13:34:01;6.47;;;4.40;;
22871;SDS011;11603;44.910;8.630;2023-06-19T13:36:27;5.82;;;4.80;;
22871;SDS011;11603;44.910;8.630;2023-06-19T13:38:53;7.43;;;4.18;;
22871;SDS011;11603;44.910;8.630;2023-06-19T13:41:19;5.03;;;4.45;;
22871;SDS011;11603;44.910;8.630;2023-06-19T13:43:44;6.93;;;4.22;;
22871;SDS011;11603;44.910;8.630;2023-06-19T13:46:11;6.07;;;4.50;;
22871;SDS011;11603;44.910;8.630;2023-06-19T13:48:37;5.82;;;4.20;;
22871;SDS011;11603;44.910;8.630;2023-06-19T13:51:02;4.38;;;3.70;;
22871;SDS011;11603;44.910;8.630;2023-06-19T13:53:28;4.78;;;3.70;;
22871;SDS011;11603;44.910;8.630;2023-06-19T13:55:54;4.45;;;3.60;;
22871;SDS011;11603;44.910;8.630;2023-06-19T13:58:20;5.05;;;3.78;;
22871;SDS011;11603;44.910;8.630;2023-06-19T14:00:45;7.18;;;3.70;;
22871;SDS011;11603;44.910;8.630;2023-06-19T14:03:11;4.95;;;3.38;;
22871;SDS011;11603;44.910;8.630;2023-06-19T14:05:37;7.97;;;3.20;;
22871;SDS011;11603;44.910;8.630;2023-06-19T14:08:03;4.63;;;3.70;;
22871;SDS011;11603;44.910;8.630;2023-06-19T14:10:29;6.53;;;3.45;;
22871;SDS011;11603;44.910;8.630;2023-06-19T14:12:55;5.70;;;3.65;;
22871;SDS011;11603;44.910;8.630;2023-06-19T14:15:20;7.72;;;3.70;;
22871;SDS011;11603;44.910;8.630;2023-06-19T14:17:46;4.78;;;3.58;;
22871;SDS011;11603;44.910;8.630;2023-06-19T14:20:11;10.35;;;4.70;;
22871;SDS011;11603;44.910;8.630;2023-06-19T14:22:37;10.60;;;4.85;;
22871;SDS011;11603;44.910;8.630;2023-06-19T14:25:03;7.07;;;4.78;;
22871;SDS011;11603;44.910;8.630;2023-06-19T14:27:28;6.47;;;3.47;;
22871;SDS011;11603;44.910;8.630;2023-06-19T14:29:55;4.45;;;4.05;;
22871;SDS011;11603;44.910;8.630;2023-06-19T14:32:21;9.45;;;4.13;;
22871;SDS011;11603;44.910;8.630;2023-06-19T14:34:49;4.35;;;3.72;;
22871;SDS011;11603;44.910;8.630;2023-06-19T14:37:15;12.45;;;4.20;;
22871;SDS011;11603;44.910;8.630;2023-06-19T14:39:40;6.00;;;3.72;;
22871;SDS011;11603;44.910;8.630;2023-06-19T14:42:06;7.85;;;3.63;;
22871;SDS011;11603;44.910;8.630;2023-06-19T14:44:31;5.18;;;3.70;;
22871;SDS011;11603;44.910;8.630;2023-06-19T14:47:00;5.95;;;3.25;;
22871;SDS011;11603;44.910;8.630;2023-06-19T14:49:25;7.45;;;3.92;;
22871;SDS011;11603;44.910;8.630;2023-06-19T14:51:51;4.20;;;3.70;;
22871;SDS011;11603;44.910;8.630;2023-06-19T14:54:16;5.82;;;3.83;;